Time;durP1;ratioP1;P1;durP2;ratioP2;P2;SDS_P1;SDS_P2;PMS_P1;PMS_P2;Temp;Humidity;BMP_temperature;BMP_pressure;BME280_temperature;BME280_humidity;BME280_pressure;Samples;Min_cycle;Max_cycle;Signal;HPM_P1;HPM_P2
2022/08/11 00:02:29;;;;;;;9.55;5.28;;;;;;;;;;4258371;33;20202;-64
2022/08/11 00:04:56;;;;;;;8.25;5.30;;;;;;;;;;4258498;33;20116;-62
2022/08/11 00:34:24;;;;;;;7.53;6.00;;;;;;;;;;4960770;28;20137;-72
2022/08/11 00:36:56;;;;;;;7.12;6.43;;;;;;;;;;4240006;33;20295;-72
2022/08/11 00:39:23;;;;;;;7.07;5.87;;;;;;;;;;4246340;33;20120;-74
2022/08/11 00:41:55;;;;;;;10.48;6.18;;;;;;;;;;4234611;33;20445;-71
2022/08/11 00:45:02;;;;;;;8.20;6.20;;;;;;;;;;4247397;33;20130;-72
2022/08/11 00:47:31;;;;;;;10.88;6.28;;;;;;;;;;4232921;33;20116;-75
2022/08/11 00:50:39;;;;;;;9.07;6.10;;;;;;;;;;4247607;33;20469;-74
2022/08/11 00:53:16;;;;;;;13.05;6.53;;;;;;;;;;4247635;33;20190;-72
2022/08/11 00:56:17;;;;;;;8.43;5.82;;;;;;;;;;4234290;33;20519;-75
2022/08/11 00:58:55;;;;;;;11.00;6.62;;;;;;;;;;4222013;33;20441;-75
2022/08/11 01:01:48;;;;;;;8.23;6.03;;;;;;;;;;4234268;33;20109;-75
2022/08/11 01:04:52;;;;;;;7.35;5.70;;;;;;;;;;4234689;33;20116;-75
2022/08/11 01:07:24;;;;;;;9.93;5.93;;;;;;;;;;4207543;34;20185;-74
2022/08/11 01:10:38;;;;;;;8.88;6.30;;;;;;;;;;4207364;34;20200;-75
2022/08/11 01:13:04;;;;;;;12.55;6.22;;;;;;;;;;4192331;33;20118;-71
2022/08/11 01:15:45;;;;;;;8.77;6.45;;;;;;;;;;4248064;33;20132;-70
2022/08/11 01:18:32;;;;;;;8.95;6.28;;;;;;;;;;4247878;33;20112;-72
2022/08/11 01:21:18;;;;;;;7.78;5.90;;;;;;;;;;4233893;33;20085;-74
2022/08/11 01:24:15;;;;;;;13.75;6.50;;;;;;;;;;4234531;33;20088;-71
2022/08/11 01:27:07;;;;;;;15.75;6.18;;;;;;;;;;4233451;33;20445;-72
2022/08/11 01:30:10;;;;;;;8.02;7.05;;;;;;;;;;4234184;33;20426;-72
2022/08/11 01:32:54;;;;;;;9.55;7.00;;;;;;;;;;4247075;33;20113;-72
2022/08/11 01:35:43;;;;;;;10.52;6.75;;;;;;;;;;4246756;33;20158;-72
2022/08/11 01:38:47;;;;;;;7.68;5.90;;;;;;;;;;4220277;33;20179;-74
2022/08/11 01:44:53;;;;;;;10.70;7.00;;;;;;;;;;4215262;33;20523;-72
2022/08/11 01:48:09;;;;;;;9.85;5.85;;;;;;;;;;4232857;33;20108;-70
2022/08/11 01:50:53;;;;;;;8.30;5.90;;;;;;;;;;4216460;34;20113;-72
2022/08/11 01:53:34;;;;;;;10.38;6.05;;;;;;;;;;4232634;33;20105;-71
2022/08/11 01:56:29;;;;;;;9.82;6.85;;;;;;;;;;4246983;33;20104;-71
2022/08/11 01:59:21;;;;;;;10.55;6.68;;;;;;;;;;4246823;33;20197;-71
2022/08/11 02:02:44;;;;;;;8.95;6.93;;;;;;;;;;4222148;33;20094;-71
2022/08/11 02:05:19;;;;;;;8.25;7.10;;;;;;;;;;4235801;33;20109;-71
2022/08/11 02:07:57;;;;;;;9.23;7.43;;;;;;;;;;4222020;33;20630;-71
2022/08/11 02:13:57;;;;;;;11.90;6.18;;;;;;;;;;4246953;33;20175;-71
2022/08/11 02:16:23;;;;;;;7.57;6.87;;;;;;;;;;4222163;33;20104;-71
2022/08/11 02:24:42;;;;;;;7.72;6.75;;;;;;;;;;4218928;33;19996;-71
2022/08/11 02:27:17;;;;;;;11.50;6.80;;;;;;;;;;4233517;33;20117;-72
2022/08/11 02:30:06;;;;;;;9.05;6.10;;;;;;;;;;4233884;33;20128;-71
2022/08/11 02:35:55;;;;;;;10.75;7.18;;;;;;;;;;4234475;33;20100;-72
2022/08/11 02:38:27;;;;;;;7.62;6.37;;;;;;;;;;4246496;33;20791;-71
2022/08/11 02:40:52;;;;;;;9.30;6.90;;;;;;;;;;4233655;33;20123;-72
2022/08/11 02:43:30;;;;;;;10.35;6.45;;;;;;;;;;4233674;33;20109;-71
2022/08/11 02:46:16;;;;;;;7.87;6.68;;;;;;;;;;4246580;33;20208;-71
2022/08/11 02:52:09;;;;;;;8.35;6.55;;;;;;;;;;4246073;33;19980;-71
2022/08/11 02:54:44;;;;;;;9.23;6.75;;;;;;;;;;4233502;33;20228;-71
2022/08/11 02:57:33;;;;;;;10.63;6.40;;;;;;;;;;4233178;33;20128;-71
2022/08/11 03:00:08;;;;;;;9.80;6.40;;;;;;;;;;4233324;33;20128;-71
2022/08/11 03:03:08;;;;;;;9.52;6.00;;;;;;;;;;4233421;33;20123;-71
2022/08/11 03:05:44;;;;;;;7.28;6.60;;;;;;;;;;4246376;33;20469;-71
2022/08/11 03:08:17;;;;;;;8.32;7.03;;;;;;;;;;4246459;33;20097;-68
2022/08/11 03:16:43;;;;;;;10.68;6.60;;;;;;;;;;4246369;33;20091;-68
2022/08/11 03:17:16;;;;;;;7.87;7.03;;;;;;;;;;4234993;33;20203;-70
2022/08/11 03:20:35;;;;;;;9.63;7.10;;;;;;;;;;4210945;33;20540;-71
2022/08/11 03:23:40;;;;;;;8.93;6.68;;;;;;;;;;4204372;34;20105;-67
2022/08/11 03:26:25;;;;;;;10.05;7.20;;;;;;;;;;4233001;33;20097;-69
2022/08/11 03:29:04;;;;;;;17.50;7.83;;;;;;;;;;4246051;33;20092;-72
2022/08/11 03:32:00;;;;;;;7.70;6.90;;;;;;;;;;4229309;33;20590;-72
2022/08/11 03:34:29;;;;;;;9.27;6.60;;;;;;;;;;4212608;33;20441;-70
2022/08/11 03:40:12;;;;;;;10.90;7.25;;;;;;;;;;4230677;33;20144;-70
2022/08/11 03:42:57;;;;;;;7.95;6.40;;;;;;;;;;4230545;33;20123;-70
2022/08/11 03:45:29;;;;;;;;;;;;;;;;;;4217672;33;20189;-70
2022/08/11 03:48:19;;;;;;;8.25;6.53;;;;;;;;;;4245913;33;19977;-72
2022/08/11 03:50:51;;;;;;;9.13;7.05;;;;;;;;;;4246732;33;20093;-72
2022/08/11 03:53:39;;;;;;;16.15;6.80;;;;;;;;;;4247951;33;20617;-71
2022/08/11 03:56:26;;;;;;;9.90;6.30;;;;;;;;;;4245070;33;20132;-69
2022/08/11 03:59:03;;;;;;;7.62;6.28;;;;;;;;;;4246376;33;20497;-76
2022/08/11 04:02:07;;;;;;;8.85;6.12;;;;;;;;;;4248005;33;20121;-73
2022/08/11 04:04:34;;;;;;;6.22;5.62;;;;;;;;;;4246524;33;20223;-74
2022/08/11 04:07:19;;;;;;;17.48;6.05;;;;;;;;;;4246038;33;20116;-73
2022/08/11 04:09:47;;;;;;;7.25;5.65;;;;;;;;;;4233598;33;20552;-74
2022/08/11 04:12:31;;;;;;;10.68;7.47;;;;;;;;;;4247592;33;20121;-73
2022/08/11 04:18:18;;;;;;;8.27;6.97;;;;;;;;;;4246838;33;20120;-73
2022/08/11 04:21:09;;;;;;;11.85;6.95;;;;;;;;;;4246482;33;20127;-78
2022/08/11 04:24:09;;;;;;;10.27;6.78;;;;;;;;;;4246526;33;20552;-76
2022/08/11 04:26:54;;;;;;;11.15;6.57;;;;;;;;;;4246557;33;20455;-78
2022/08/11 04:29:37;;;;;;;12.27;8.33;;;;;;;;;;4246233;33;20480;-73
2022/08/11 04:32:38;;;;;;;9.65;7.85;;;;;;;;;;4234483;33;20304;-73
2022/08/11 04:35:31;;;;;;;9.57;7.55;;;;;;;;;;4234646;33;20568;-73
2022/08/11 04:38:08;;;;;;;10.65;6.37;;;;;;;;;;4234384;33;20432;-73
2022/08/11 04:41:15;;;;;;;7.25;6.43;;;;;;;;;;4234565;33;20515;-73
2022/08/11 04:43:47;;;;;;;7.47;5.90;;;;;;;;;;4222867;33;20117;-73
2022/08/11 04:46:31;;;;;;;7.07;5.95;;;;;;;;;;4234590;33;20464;-73
2022/08/11 05:01:50;;;;;;;9.40;6.20;;;;;;;;;;4246774;33;20100;-73
2022/08/11 05:07:24;;;;;;;7.30;5.00;;;;;;;;;;4246790;33;20494;-66
2022/08/11 05:10:20;;;;;;;5.32;4.82;;;;;;;;;;4247319;33;20190;-67
2022/08/11 05:12:55;;;;;;;8.45;5.07;;;;;;;;;;4220314;33;20297;-71
2022/08/11 05:36:08;;;;;;;12.68;10.43;;;;;;;;;;4235907;33;20132;-71
2022/08/11 05:58:06;;;;;;;11.77;8.95;;;;;;;;;;4224323;33;20216;-70
2022/08/11 06:00:44;;;;;;;14.98;10.02;;;;;;;;;;4213696;33;20140;-69
2022/08/11 06:03:12;;;;;;;10.90;8.80;;;;;;;;;;4222422;33;20120;-68
2022/08/11 06:05:42;;;;;;;8.77;7.62;;;;;;;;;;4234246;33;20121;-68
2022/08/11 06:08:09;;;;;;;13.93;9.38;;;;;;;;;;4222763;33;20105;-68
2022/08/11 06:10:38;;;;;;;10.63;8.05;;;;;;;;;;4236868;33;20132;-68
2022/08/11 06:13:06;;;;;;;11.77;7.43;;;;;;;;;;4210728;33;20101;-67
2022/08/11 06:15:42;;;;;;;9.23;6.75;;;;;;;;;;4222267;33;20123;-68
2022/08/11 06:18:11;;;;;;;9.60;6.87;;;;;;;;;;4210902;33;20115;-72
2022/08/11 06:20:50;;;;;;;14.18;7.60;;;;;;;;;;4211031;33;20223;-71
2022/08/11 06:23:18;;;;;;;9.60;6.65;;;;;;;;;;4222595;33;20104;-70
2022/08/11 06:25:46;;;;;;;11.80;7.32;;;;;;;;;;4219988;33;20116;-71
2022/08/11 06:28:12;;;;;;;9.13;6.45;;;;;;;;;;4232733;33;20115;-72
2022/08/11 06:30:44;;;;;;;9.13;5.85;;;;;;;;;;4232656;33;20509;-70
2022/08/11 06:33:12;;;;;;;10.52;6.20;;;;;;;;;;4232678;33;20116;-70
2022/08/11 06:36:03;;;;;;;9.55;6.00;;;;;;;;;;4232710;33;20120;-70
2022/08/11 06:38:58;;;;;;;10.10;6.10;;;;;;;;;;4240444;33;20080;-72
2022/08/11 06:41:47;;;;;;;8.13;4.97;;;;;;;;;;4233372;33;20195;-73
2022/08/11 06:44:13;;;;;;;10.43;5.90;;;;;;;;;;4232730;33;20180;-73
2022/08/11 06:46:46;;;;;;;6.15;5.55;;;;;;;;;;4246501;33;20101;-73
2022/08/11 06:52:03;;;;;;;8.68;5.55;;;;;;;;;;4246463;33;20116;-76
2022/08/11 06:54:44;;;;;;;8.15;5.43;;;;;;;;;;4221728;33;20128;-76
2022/08/11 07:03:10;;;;;;;4.95;3.33;;;;;;;;;;4235509;33;20100;-77
2022/08/11 07:05:36;;;;;;;3.42;2.35;;;;;;;;;;4233469;33;20195;-66
2022/08/11 07:17:25;;;;;;;6.45;4.80;;;;;;;;;;4211561;33;20129;-76
2022/08/11 07:31:13;;;;;;;6.37;3.47;;;;;;;;;;4225468;33;20302;-77
2022/08/11 07:33:48;;;;;;;6.05;3.67;;;;;;;;;;4223505;33;20132;-76
2022/08/11 07:36:15;;;;;;;7.95;3.28;;;;;;;;;;4234911;33;20104;-70
2022/08/11 07:38:50;;;;;;;4.22;3.42;;;;;;;;;;4235189;33;20216;-72
2022/08/11 07:41:18;;;;;;;3.60;3.12;;;;;;;;;;4234641;33;20131;-72
2022/08/11 07:43:49;;;;;;;4.45;2.92;;;;;;;;;;4234812;33;20109;-72
2022/08/11 07:54:31;;;;;;;1.92;1.83;;;;;;;;;;4247853;33;20139;-71
2022/08/11 07:56:58;;;;;;;4.22;3.40;;;;;;;;;;4247863;33;20525;-74
2022/08/11 08:18:42;;;;;;;6.03;2.97;;;;;;;;;;4234423;33;20111;-70
2022/08/11 08:21:11;;;;;;;1.42;1.33;;;;;;;;;;4231282;33;20207;-70
2022/08/11 08:23:40;;;;;;;2.72;2.53;;;;;;;;;;4244760;33;20211;-70
2022/08/11 08:26:57;;;;;;;7.00;3.50;;;;;;;;;;4208280;33;20555;-68
2022/08/11 08:31:47;;;;;;;4.72;3.53;;;;;;;;;;4234082;33;20116;-68
2022/08/11 08:34:14;;;;;;;4.18;2.85;;;;;;;;;;4220144;33;20128;-68
2022/08/11 08:36:45;;;;;;;6.25;3.80;;;;;;;;;;4231178;33;20128;-70
2022/08/11 08:39:12;;;;;;;4.28;2.90;;;;;;;;;;4244046;33;20140;-70
2022/08/11 08:41:39;;;;;;;4.40;2.95;;;;;;;;;;4246694;33;20105;-70
2022/08/11 08:44:10;;;;;;;4.80;3.45;;;;;;;;;;4246079;33;20097;-69
2022/08/11 08:46:44;;;;;;;4.28;3.17;;;;;;;;;;4246413;33;20108;-69
2022/08/11 08:49:14;;;;;;;4.22;3.45;;;;;;;;;;4247504;33;21308;-70
2022/08/11 08:51:42;;;;;;;4.47;3.53;;;;;;;;;;4246330;33;20105;-68
2022/08/11 08:54:11;;;;;;;7.95;3.87;;;;;;;;;;4246268;33;20112;-70
2022/08/11 08:56:39;;;;;;;8.88;2.85;;;;;;;;;;4247518;33;20200;-70
2022/08/11 08:59:06;;;;;;;6.53;3.30;;;;;;;;;;4245858;33;20108;-70
2022/08/11 09:01:42;;;;;;;6.60;2.87;;;;;;;;;;4234994;33;20226;-69
2022/08/11 09:04:08;;;;;;;5.70;2.95;;;;;;;;;;4246518;33;20124;-76
2022/08/11 09:06:39;;;;;;;9.35;2.90;;;;;;;;;;4234196;33;20128;-73
2022/08/11 09:09:08;;;;;;;3.12;2.65;;;;;;;;;;4234284;33;20124;-77
2022/08/11 09:11:54;;;;;;;3.10;2.72;;;;;;;;;;4246068;33;20432;-74
2022/08/11 09:17:18;;;;;;;7.75;3.47;;;;;;;;;;4236080;33;20116;-73
2022/08/11 09:20:00;;;;;;;5.30;3.28;;;;;;;;;;4247255;33;20187;-67
2022/08/11 09:27:57;;;;;;;3.03;2.33;;;;;;;;;;4246190;33;20128;-65
2022/08/11 09:30:25;;;;;;;6.30;2.78;;;;;;;;;;4245704;33;20208;-67
2022/08/11 09:32:59;;;;;;;3.47;2.33;;;;;;;;;;4234040;33;20116;-66
2022/08/11 09:35:27;;;;;;;3.37;2.87;;;;;;;;;;4245584;33;20182;-65
2022/08/11 09:40:43;;;;;;;3.70;3.40;;;;;;;;;;4236010;33;20117;-66
2022/08/11 09:45:57;;;;;;;4.05;2.72;;;;;;;;;;4235738;33;20533;-66
2022/08/11 09:48:25;;;;;;;5.20;2.60;;;;;;;;;;4233640;33;20085;-65
2022/08/11 09:50:53;;;;;;;3.40;2.72;;;;;;;;;;4247105;33;20124;-66
2022/08/11 09:53:21;;;;;;;3.85;2.33;;;;;;;;;;4233928;33;20104;-66
2022/08/11 09:55:48;;;;;;;4.10;2.55;;;;;;;;;;4222094;33;20163;-65
2022/08/11 09:58:17;;;;;;;2.20;2.00;;;;;;;;;;4247035;33;20110;-67
2022/08/11 10:00:46;;;;;;;3.53;2.60;;;;;;;;;;4233642;33;20116;-68
2022/08/11 10:03:17;;;;;;;2.58;1.50;;;;;;;;;;4234090;33;20664;-67
2022/08/11 10:08:34;;;;;;;3.35;3.05;;;;;;;;;;4235889;33;20661;-66
2022/08/11 10:11:01;;;;;;;4.32;3.05;;;;;;;;;;4233757;33;20536;-67
2022/08/11 10:15:32;;;;;;;3.05;2.70;;;;;;;;;;4233979;33;20132;-67
2022/08/11 10:16:24;;;;;;;4.50;2.90;;;;;;;;;;4246543;33;20195;-66
2022/08/11 10:18:54;;;;;;;4.07;2.70;;;;;;;;;;4234180;33;20121;-67
2022/08/11 10:21:33;;;;;;;4.82;2.70;;;;;;;;;;4246822;33;20127;-67
2022/08/11 10:26:53;;;;;;;2.75;2.55;;;;;;;;;;4223755;33;20212;-66
2022/08/11 10:34:58;;;;;;;3.25;2.75;;;;;;;;;;4223170;33;20203;-67
2022/08/11 10:37:25;;;;;;;3.58;2.90;;;;;;;;;;4233658;33;20116;-67
2022/08/11 10:39:51;;;;;;;8.25;3.20;;;;;;;;;;4246414;33;20208;-67
2022/08/11 10:47:33;;;;;;;4.78;2.90;;;;;;;;;;4235348;33;20100;-66
2022/08/11 10:47:55;;;;;;;4.00;2.85;;;;;;;;;;4246517;33;20454;-67
2022/08/11 10:58:47;;;;;;;3.55;2.85;;;;;;;;;;4235605;33;20092;-67
2022/08/11 11:01:33;;;;;;;6.03;3.60;;;;;;;;;;4245110;33;20200;-67
2022/08/11 11:04:02;;;;;;;6.93;3.95;;;;;;;;;;4233266;33;20116;-67
2022/08/11 11:06:32;;;;;;;4.97;3.28;;;;;;;;;;4221433;33;20541;-67
2022/08/11 11:09:01;;;;;;;6.18;3.40;;;;;;;;;;4246513;33;20111;-67
2022/08/11 11:19:57;;;;;;;4.72;3.12;;;;;;;;;;4235322;33;20582;-65
2022/08/11 11:22:37;;;;;;;3.85;2.72;;;;;;;;;;4233084;33;20123;-66
2022/08/11 11:25:17;;;;;;;9.20;3.17;;;;;;;;;;4234213;33;20123;-65
2022/08/11 11:28:15;;;;;;;4.97;3.50;;;;;;;;;;4233173;33;20191;-64
2022/08/11 11:31:22;;;;;;;3.87;3.55;;;;;;;;;;4229439;33;20120;-67
2022/08/11 11:34:06;;;;;;;6.78;3.42;;;;;;;;;;4242158;33;20203;-66
2022/08/11 11:36:51;;;;;;;4.22;2.83;;;;;;;;;;4232983;33;20109;-67
2022/08/11 11:39:27;;;;;;;5.43;3.37;;;;;;;;;;4245891;33;20100;-67
2022/08/11 11:41:57;;;;;;;3.22;2.80;;;;;;;;;;4246049;33;20211;-67
2022/08/11 11:44:24;;;;;;;4.22;2.42;;;;;;;;;;4209900;33;20133;-67
2022/08/11 11:46:51;;;;;;;1.60;1.50;;;;;;;;;;4209324;33;20132;-67
2022/08/11 11:49:19;;;;;;;3.00;2.17;;;;;;;;;;4232766;33;20093;-65
2022/08/11 11:51:46;;;;;;;4.97;2.30;;;;;;;;;;4232928;33;20112;-64
2022/08/11 11:54:14;;;;;;;5.37;2.70;;;;;;;;;;4233039;33;20719;-65
2022/08/11 11:56:44;;;;;;;4.62;2.80;;;;;;;;;;4245612;33;20203;-65
2022/08/11 12:01:56;;;;;;;3.95;1.77;;;;;;;;;;4245647;33;20121;-67
2022/08/11 12:04:22;;;;;;;3.12;2.45;;;;;;;;;;4245900;33;20103;-67
2022/08/11 12:06:51;;;;;;;1.92;1.77;;;;;;;;;;4232462;33;20188;-67
2022/08/11 12:09:22;;;;;;;10.70;2.92;;;;;;;;;;4245672;33;20227;-66
2022/08/11 12:14:33;;;;;;;4.75;2.70;;;;;;;;;;4236785;33;20103;-65
2022/08/11 12:17:00;;;;;;;3.35;2.53;;;;;;;;;;4234658;33;20128;-64
2022/08/11 12:19:29;;;;;;;3.45;2.45;;;;;;;;;;4247849;33;20116;-65
2022/08/11 12:27:42;;;;;;;7.22;2.65;;;;;;;;;;4195494;34;20574;-64
2022/08/11 12:30:09;;;;;;;2.15;1.87;;;;;;;;;;4228550;33;20136;-65
2022/08/11 12:32:36;;;;;;;3.28;2.17;;;;;;;;;;4247624;33;20116;-67
2022/08/11 12:35:03;;;;;;;5.22;2.50;;;;;;;;;;4247384;33;20107;-67
2022/08/11 12:37:36;;;;;;;2.42;2.22;;;;;;;;;;4247041;33;20128;-66
2022/08/11 12:45:37;;;;;;;4.55;2.05;;;;;;;;;;4247408;33;20120;-65
2022/08/11 12:53:59;;;;;;;10.05;3.33;;;;;;;;;;4246396;33;20132;-65
2022/08/11 13:04:58;;;;;;;4.28;2.85;;;;;;;;;;4236084;33;20457;-65
2022/08/11 13:07:28;;;;;;;4.97;3.12;;;;;;;;;;4212543;33;20528;-65
2022/08/11 13:09:55;;;;;;;12.68;4.75;;;;;;;;;;4222765;33;20105;-64
2022/08/11 13:15:19;;;;;;;8.05;3.42;;;;;;;;;;4222565;33;20500;-64
2022/08/11 13:17:47;;;;;;;11.23;3.78;;;;;;;;;;4246676;33;20112;-66
2022/08/11 13:20:17;;;;;;;5.35;3.08;;;;;;;;;;4240042;33;20121;-66
2022/08/11 13:22:46;;;;;;;4.78;2.60;;;;;;;;;;4246474;33;20084;-64
2022/08/11 13:25:15;;;;;;;10.07;3.08;;;;;;;;;;4222403;33;20099;-64
2022/08/11 13:27:42;;;;;;;4.65;2.85;;;;;;;;;;4234019;33;20219;-67
2022/08/11 13:32:54;;;;;;;3.53;2.70;;;;;;;;;;4235896;33;20592;-64
2022/08/11 13:35:21;;;;;;;6.55;2.65;;;;;;;;;;4233642;33;20513;-67
2022/08/11 13:37:49;;;;;;;3.75;2.70;;;;;;;;;;4222487;33;20115;-67
2022/08/11 13:40:17;;;;;;;2.33;2.12;;;;;;;;;;4247062;33;20133;-68
2022/08/11 13:42:43;;;;;;;2.67;2.40;;;;;;;;;;4234007;33;20105;-67
2022/08/11 13:45:10;;;;;;;3.35;2.22;;;;;;;;;;4233954;33;20120;-67
2022/08/11 13:47:37;;;;;;;6.10;2.80;;;;;;;;;;4210035;33;20117;-67
2022/08/11 13:50:05;;;;;;;9.75;3.03;;;;;;;;;;4246726;33;20093;-68
2022/08/11 13:52:33;;;;;;;4.22;3.35;;;;;;;;;;4234052;33;20105;-67
2022/08/11 13:54:59;;;;;;;3.03;2.70;;;;;;;;;;4233867;33;20140;-67
2022/08/11 13:57:25;;;;;;;3.25;2.47;;;;;;;;;;4233861;33;20195;-67
2022/08/11 13:59:53;;;;;;;4.32;2.33;;;;;;;;;;4233778;33;20211;-67
2022/08/11 14:02:26;;;;;;;6.47;2.85;;;;;;;;;;4246950;33;20109;-68
2022/08/11 14:04:55;;;;;;;5.65;2.62;;;;;;;;;;4233932;33;20526;-67
2022/08/11 14:07:24;;;;;;;5.57;2.90;;;;;;;;;;4246955;33;20115;-67
2022/08/11 14:09:56;;;;;;;9.07;3.75;;;;;;;;;;4233677;33;20540;-66
2022/08/11 14:15:21;;;;;;;3.67;2.03;;;;;;;;;;4236028;33;20139;-67
2022/08/11 14:18:00;;;;;;;4.22;2.20;;;;;;;;;;4233779;33;20529;-69
2022/08/11 14:22:05;;;;;;;5.32;2.90;;;;;;;;;;4234017;33;20540;-67
2022/08/11 14:23:14;;;;;;;3.53;2.25;;;;;;;;;;4246562;33;20808;-67
2022/08/11 14:26:22;;;;;;;6.78;2.17;;;;;;;;;;4247070;33;20111;-66
2022/08/11 14:28:26;;;;;;;2.85;2.40;;;;;;;;;;4246674;33;20191;-68
2022/08/11 14:30:55;;;;;;;5.43;2.75;;;;;;;;;;4246857;33;20105;-67
2022/08/11 14:33:22;;;;;;;4.10;2.40;;;;;;;;;;4233808;33;20543;-66
2022/08/11 14:35:48;;;;;;;2.78;2.35;;;;;;;;;;4246301;33;20464;-66
2022/08/11 14:38:15;;;;;;;3.25;2.35;;;;;;;;;;4233430;33;20528;-64
2022/08/11 14:48:58;;;;;;;6.00;2.72;;;;;;;;;;4233370;33;20085;-69
2022/08/11 14:51:25;;;;;;;11.35;3.17;;;;;;;;;;4246606;33;20124;-68
2022/08/11 14:56:34;;;;;;;5.22;2.62;;;;;;;;;;4246412;33;20096;-71
2022/08/11 14:56:39;;;;;;;10.55;2.75;;;;;;;;;;4233068;33;20101;-71
2022/08/11 14:59:05;;;;;;;4.57;3.05;;;;;;;;;;4244900;33;20113;-71
2022/08/11 15:04:19;;;;;;;6.72;2.40;;;;;;;;;;4245097;33;20101;-69
2022/08/11 15:06:45;;;;;;;7.20;2.60;;;;;;;;;;4249664;33;20104;-69
2022/08/11 15:09:11;;;;;;;7.18;2.50;;;;;;;;;;4243208;33;20125;-71
2022/08/11 15:17:08;;;;;;;4.20;2.37;;;;;;;;;;4232534;33;20120;-68
2022/08/11 15:19:35;;;;;;;4.32;2.65;;;;;;;;;;4232862;33;20471;-69
2022/08/11 15:24:46;;;;;;;5.35;3.05;;;;;;;;;;4233448;33;20116;-69
2022/08/11 15:38:38;;;;;;;;;;;;;;;;;;4231766;33;20716;-68
2022/08/11 15:46:48;;;;;;;4.82;2.55;;;;;;;;;;4240688;33;19987;-69
2022/08/11 15:49:17;;;;;;;5.12;2.95;;;;;;;;;;4234300;33;20204;-69
2022/08/11 15:51:47;;;;;;;7.18;2.65;;;;;;;;;;4244061;33;20127;-69
2022/08/11 15:54:19;;;;;;;13.32;3.30;;;;;;;;;;4242771;33;20132;-69
2022/08/11 15:56:48;;;;;;;3.45;2.90;;;;;;;;;;4245586;33;20208;-69
2022/08/11 16:04:37;;;;;;;3.85;2.67;;;;;;;;;;4249626;33;20411;-67
2022/08/11 16:07:13;;;;;;;5.47;2.90;;;;;;;;;;4222368;33;20121;-69
2022/08/11 16:09:46;;;;;;;10.30;3.55;;;;;;;;;;4251659;33;20097;-67
2022/08/11 16:12:18;;;;;;;7.93;3.00;;;;;;;;;;4222248;33;20433;-66
2022/08/11 16:17:44;;;;;;;16.58;4.40;;;;;;;;;;4234920;33;20119;-66
2022/08/11 16:20:15;;;;;;;8.82;3.67;;;;;;;;;;4234368;33;20152;-68
2022/08/11 16:22:46;;;;;;;7.57;4.70;;;;;;;;;;4234946;33;20101;-68
2022/08/11 16:25:16;;;;;;;7.03;3.12;;;;;;;;;;4235139;33;20120;-68
2022/08/11 16:27:45;;;;;;;10.10;3.28;;;;;;;;;;4234550;33;20465;-70
2022/08/11 16:30:13;;;;;;;10.18;3.05;;;;;;;;;;4247580;33;20096;-69
2022/08/11 16:32:42;;;;;;;11.55;3.92;;;;;;;;;;4234970;33;20120;-67
2022/08/11 16:40:49;;;;;;;13.82;3.35;;;;;;;;;;4236778;33;20110;-68
2022/08/11 16:48:49;;;;;;;8.05;3.22;;;;;;;;;;4236311;33;20552;-69
2022/08/11 16:51:15;;;;;;;9.38;3.70;;;;;;;;;;4234628;33;20572;-66
2022/08/11 16:53:44;;;;;;;11.75;4.20;;;;;;;;;;4247386;33;20105;-66
2022/08/11 16:56:15;;;;;;;11.77;4.25;;;;;;;;;;4247350;33;20219;-66
2022/08/11 17:01:26;;;;;;;9.82;4.45;;;;;;;;;;4246518;33;20120;-70
2022/08/11 17:18:01;;;;;;;6.60;4.40;;;;;;;;;;4246042;33;20530;-67
2022/08/11 17:20:28;;;;;;;11.63;5.12;;;;;;;;;;4245880;33;20100;-68
2022/08/11 17:25:40;;;;;;;;;;;;;;;;;;4246281;33;20123;-67
2022/08/11 17:28:06;;;;;;;8.52;3.85;;;;;;;;;;4245690;33;20416;-67
2022/08/11 17:36:03;;;;;;;9.48;3.62;;;;;;;;;;4235513;33;20096;-66
2022/08/11 17:38:32;;;;;;;12.55;4.30;;;;;;;;;;4247081;33;20121;-66
2022/08/11 17:49:19;;;;;;;9.95;4.47;;;;;;;;;;4246761;33;20097;-68
2022/08/11 18:00:05;;;;;;;11.15;3.83;;;;;;;;;;4235717;33;20128;-68
2022/08/11 18:05:29;;;;;;;5.75;3.22;;;;;;;;;;4212007;33;20223;-67
